Luverne, MN

1:26 AM CST on November 15, 2019 (GMT -0600)
Luverne

Weather History for KLYV - October, 2019

Change the Weather History Date:

Sunday, October 13, 2019

  Actual Average (WUND) Record (WUND)
Temperature  
Mean Temperature 36 °F -  
Max Temperature 41 °F - - (-1)
Min Temperature 30 °F - - (-1)
Degree Days  
Heating Degree Days 28    
Moisture  
Dew Point 29 °F    
Average Humidity 81    
Maximum Humidity 93    
Minimum Humidity 61    
Precipitation  
Precipitation 0.00 in - - ()
Sea Level Pressure  
Sea Level Pressure 29.88 in    
Wind  
Wind Speed 11 mph (WNW)    
Max Wind Speed 18 mph    
Max Gust Speed 26 mph    
Visibility 10 miles    
Events Snow    
Averages and records for this station are not official NWS values.
T = Trace of Precipitation, MM = Missing Value Source: NWS Daily Summary

Daily Weather History Graph

Daily Weather History Graph

Search for Another Location

Airport or City:

Astronomy

Oct. 13, 2019 Rise Set
Actual Time 7:36 AM CDT 6:45 PM CDT
Civil Twilight 7:07 AM CDT 7:13 PM CDT
Nautical Twilight 6:34 AM CDT 7:47 PM CDT
Astronomical Twilight 6:01 AM CDT 8:20 PM CDT
Moon 7:09 PM CDT (10/13) 7:08 AM CDT (10/13)
Length of Visible Light 12h 06m
Length of Day
11h 08m
Full, 100% of the Moon is Illuminated
Oct 13
Full
Oct 13
Full
Oct 21
Last Quarter
Oct 27
New
Nov 4
First Quarter

Hourly Weather History & Observations

Time (CDT) Temp. Windchill Dew Point Humidity Pressure Visibility Wind Dir Wind Speed Gust Speed Precip Events Conditions
12:15 AM 32.0 °F 22.5 °F 30.2 °F 93% 29.78 in 10.0 mi West 12.7 mph 17.3 mph N/A Snow Light Snow
12:19 AM 32.0 °F 22.5 °F 30.2 °F 93% 29.78 in 10.0 mi West 12.7 mph 18.4 mph N/A   Overcast
12:37 AM 32.0 °F 23.6 °F 30.2 °F 93% 29.79 in 10.0 mi West 10.4 mph 17.3 mph N/A   Overcast
12:55 AM 32.0 °F 23.6 °F 30.2 °F 93% 29.79 in 10.0 mi West 10.4 mph - N/A   Overcast
1:15 AM 32.0 °F 23.0 °F 30.2 °F 93% 29.79 in 4.0 mi West 11.5 mph - N/A Snow Light Snow
1:36 AM 32.0 °F 23.6 °F 30.2 °F 93% 29.79 in 7.0 mi West 10.4 mph - N/A Snow Light Snow
1:58 AM 32.0 °F 22.5 °F 30.2 °F 93% 29.79 in 7.0 mi West 12.7 mph - N/A   Overcast
2:16 AM 32.0 °F 23.0 °F 30.2 °F 93% 29.79 in 10.0 mi West 11.5 mph - N/A   Overcast
2:36 AM 32.0 °F 22.5 °F 30.2 °F 93% 29.79 in 10.0 mi WNW 12.7 mph 18.4 mph N/A   Overcast
2:56 AM 32.0 °F 23.0 °F 30.2 °F 93% 29.79 in 10.0 mi West 11.5 mph - N/A   Overcast
3:15 AM 32.0 °F 23.0 °F 30.2 °F 93% 29.79 in 10.0 mi West 11.5 mph 17.3 mph N/A   Overcast
3:20 AM 32.0 °F 23.6 °F 30.2 °F 93% 29.79 in 10.0 mi West 10.4 mph 17.3 mph N/A   Overcast
3:37 AM 32.0 °F 23.6 °F 30.2 °F 93% 29.79 in 10.0 mi West 10.4 mph - N/A   Overcast
3:55 AM 32.0 °F 22.5 °F 30.2 °F 93% 29.80 in 10.0 mi WNW 12.7 mph - N/A   Overcast
4:16 AM 32.0 °F 23.0 °F 30.2 °F 93% 29.79 in 10.0 mi West 11.5 mph - N/A   Overcast
4:35 AM 32.0 °F 23.6 °F 30.2 °F 93% 29.79 in 10.0 mi WNW 10.4 mph - N/A   Overcast
4:58 AM 32.0 °F 23.0 °F 30.2 °F 93% 29.80 in 10.0 mi West 11.5 mph 16.1 mph N/A   Overcast
5:16 AM 32.0 °F 23.0 °F 30.2 °F 93% 29.80 in 10.0 mi WNW 11.5 mph 17.3 mph N/A   Overcast
5:36 AM 32.0 °F 24.2 °F 28.4 °F 87% 29.80 in 10.0 mi WNW 9.2 mph - N/A   Mostly Cloudy
5:56 AM 32.0 °F 23.6 °F 30.2 °F 93% 29.80 in 10.0 mi WNW 10.4 mph - N/A   Mostly Cloudy
6:15 AM 32.0 °F 23.6 °F 30.2 °F 93% 29.81 in 10.0 mi WNW 10.4 mph - N/A   Overcast
6:19 AM 32.0 °F 23.6 °F 30.2 °F 93% 29.81 in 10.0 mi WNW 10.4 mph - N/A   Overcast
6:38 AM 32.0 °F 23.6 °F 28.4 °F 87% 29.82 in 10.0 mi WNW 10.4 mph - N/A   Overcast
6:55 AM 32.0 °F 24.8 °F 28.4 °F 87% 29.82 in 10.0 mi West 8.1 mph - N/A   Overcast
7:16 AM 32.0 °F 24.2 °F 30.2 °F 93% 29.81 in 10.0 mi West 9.2 mph - N/A   Overcast
7:36 AM 32.0 °F 24.8 °F 30.2 °F 93% 29.82 in 10.0 mi West 8.1 mph - N/A   Overcast
7:58 AM 32.0 °F 24.2 °F 30.2 °F 93% 29.82 in 10.0 mi West 9.2 mph - N/A   Overcast
8:17 AM 32.0 °F 24.2 °F 30.2 °F 93% 29.82 in 10.0 mi West 9.2 mph - N/A   Overcast
8:36 AM 32.0 °F 23.6 °F 30.2 °F 93% 29.83 in 10.0 mi WNW 10.4 mph - N/A   Overcast
8:56 AM 32.0 °F 23.6 °F 30.2 °F 93% 29.83 in 10.0 mi WNW 10.4 mph - N/A   Overcast
9:15 AM 32.0 °F 22.5 °F 30.2 °F 93% 29.84 in 10.0 mi WNW 12.7 mph 16.1 mph N/A   Overcast
9:20 AM 33.8 °F 25.8 °F 30.2 °F 87% 29.84 in 10.0 mi West 10.4 mph 16.1 mph N/A   Overcast
9:37 AM 33.8 °F 25.8 °F 30.2 °F 87% 29.84 in 10.0 mi WNW 10.4 mph - N/A   Mostly Cloudy
9:55 AM 33.8 °F 24.8 °F 30.2 °F 87% 29.85 in 10.0 mi WNW 12.7 mph - N/A   Mostly Cloudy
10:16 AM 33.8 °F 24.8 °F 30.2 °F 87% 29.85 in 10.0 mi WNW 12.7 mph - N/A   Mostly Cloudy
10:36 AM 33.8 °F 24.8 °F 30.2 °F 87% 29.86 in 10.0 mi WNW 12.7 mph 18.4 mph N/A   Overcast
10:59 AM 35.6 °F 26.2 °F 30.2 °F 81% 29.86 in 10.0 mi WNW 15.0 mph 20.7 mph N/A   Overcast
11:17 AM 35.6 °F 26.6 °F 30.2 °F 81% 29.86 in 10.0 mi WNW 13.8 mph 20.7 mph N/A   Overcast
11:36 AM 35.6 °F 27.1 °F 32.0 °F 87% 29.87 in 10.0 mi WNW 12.7 mph - N/A   Overcast
11:56 AM 35.6 °F 27.1 °F 30.2 °F 81% 29.88 in 10.0 mi NW 12.7 mph 18.4 mph N/A   Overcast
12:15 PM 37.4 °F 28.9 °F 30.2 °F 75% 29.89 in 10.0 mi WNW 13.8 mph 21.9 mph N/A   Overcast
12:20 PM 37.4 °F 27.8 °F 30.2 °F 75% 29.89 in 10.0 mi WNW 17.3 mph 21.9 mph N/A   Overcast
12:37 PM 37.4 °F 28.9 °F 30.2 °F 75% 29.90 in 10.0 mi WNW 13.8 mph 23.0 mph N/A   Overcast
12:55 PM 35.6 °F 25.9 °F 30.2 °F 81% 29.90 in 10.0 mi WNW 16.1 mph - N/A   Overcast
1:16 PM 37.4 °F 28.5 °F 28.4 °F 70% 29.90 in 10.0 mi NW 15.0 mph 23.0 mph N/A   Overcast
1:36 PM 37.4 °F 28.9 °F 30.2 °F 75% 29.90 in 10.0 mi WNW 13.8 mph 19.6 mph N/A   Overcast
1:58 PM 37.4 °F 28.5 °F 28.4 °F 70% 29.90 in 10.0 mi WNW 15.0 mph 20.7 mph N/A   Overcast
2:17 PM 37.4 °F 27.5 °F 28.4 °F 70% 29.90 in 10.0 mi WNW 18.4 mph 26.5 mph N/A   Overcast
2:36 PM 37.4 °F 27.8 °F 28.4 °F 70% 29.90 in 10.0 mi WNW 17.3 mph 24.2 mph N/A   Overcast
2:56 PM 39.2 °F 29.8 °F 30.2 °F 70% 29.90 in 10.0 mi WNW 18.4 mph 25.3 mph N/A   Overcast
3:15 PM 41.0 °F 32.2 °F 28.4 °F 61% 29.90 in 10.0 mi WNW 18.4 mph 24.2 mph N/A   Overcast
3:19 PM 41.0 °F 32.5 °F 28.4 °F 61% 29.90 in 10.0 mi WNW 17.3 mph 25.3 mph N/A   Overcast
3:38 PM 41.0 °F 33.9 °F 28.4 °F 61% 29.91 in 10.0 mi WNW 12.7 mph 20.7 mph N/A   Mostly Cloudy
3:56 PM 39.2 °F 30.8 °F 28.4 °F 65% 29.91 in 10.0 mi NW 15.0 mph 23.0 mph N/A   Overcast
4:16 PM 39.2 °F 32.0 °F 28.4 °F 65% 29.91 in 10.0 mi WNW 11.5 mph 19.6 mph N/A   Overcast
4:36 PM 39.2 °F 31.2 °F 30.2 °F 70% 29.92 in 10.0 mi WNW 13.8 mph 19.6 mph N/A   Overcast
4:59 PM 37.4 °F 29.8 °F 28.4 °F 70% 29.92 in 10.0 mi NW 11.5 mph 20.7 mph N/A   Overcast
5:16 PM 37.4 °F 28.9 °F 28.4 °F 70% 29.93 in 10.0 mi WNW 13.8 mph - N/A   Overcast
5:35 PM 37.4 °F 31.4 °F 28.4 °F 70% 29.93 in 10.0 mi NW 8.1 mph - N/A   Overcast
5:56 PM 37.4 °F 29.8 °F 28.4 °F 70% 29.94 in 10.0 mi NW 11.5 mph 17.3 mph N/A   Overcast
6:15 PM 37.4 °F 31.4 °F 28.4 °F 70% 29.95 in 10.0 mi NW 8.1 mph - N/A   Overcast
6:20 PM 37.4 °F 31.4 °F 28.4 °F 70% 29.95 in 10.0 mi WNW 8.1 mph - N/A   Overcast
6:38 PM 37.4 °F 30.8 °F 28.4 °F 70% 29.95 in 10.0 mi WNW 9.2 mph - N/A   Overcast
6:55 PM 37.4 °F 32.8 °F 30.2 °F 75% 29.96 in 10.0 mi WNW 5.8 mph - N/A   Overcast
7:16 PM 37.4 °F 31.4 °F 30.2 °F 75% 29.96 in 10.0 mi WNW 8.1 mph - N/A   Overcast
7:36 PM 37.4 °F 31.4 °F 28.4 °F 70% 29.97 in 10.0 mi NW 8.1 mph - N/A   Overcast
7:58 PM 37.4 °F 32.8 °F 28.4 °F 70% 29.97 in 10.0 mi NW 5.8 mph - N/A   Overcast
8:16 PM 37.4 °F 32.8 °F 28.4 °F 70% 29.98 in 10.0 mi NW 5.8 mph - N/A   Overcast
8:36 PM 37.4 °F 30.8 °F 28.4 °F 70% 29.98 in 10.0 mi NNW 9.2 mph - N/A   Overcast
8:55 PM 37.4 °F 32.1 °F 28.4 °F 70% 29.99 in 10.0 mi NNW 6.9 mph - N/A   Overcast
9:15 PM 37.4 °F 32.8 °F 28.4 °F 70% 29.99 in 10.0 mi NNW 5.8 mph - N/A   Overcast
9:20 PM 37.4 °F 32.8 °F 28.4 °F 70% 29.99 in 10.0 mi NNW 5.8 mph - N/A   Overcast
9:37 PM 37.4 °F 32.1 °F 28.4 °F 70% 29.99 in 10.0 mi NNW 6.9 mph - N/A   Overcast
9:55 PM 35.6 °F 31.7 °F 28.4 °F 75% 29.99 in 10.0 mi North 4.6 mph - N/A   Overcast
10:15 PM 35.6 °F 32.8 °F 28.4 °F 75% 29.99 in 10.0 mi North 3.5 mph - N/A   Mostly Cloudy
10:36 PM 35.6 °F 32.8 °F 28.4 °F 75% 29.98 in 10.0 mi North 3.5 mph - N/A   Clear
10:59 PM 33.8 °F - 28.4 °F 81% 29.98 in 10.0 mi Calm Calm - N/A   Clear
11:16 PM 32.0 °F 28.7 °F 28.4 °F 87% 29.99 in 10.0 mi NW 3.5 mph - N/A   Clear
11:36 PM 32.0 °F 28.7 °F 28.4 °F 87% 29.99 in 10.0 mi West 3.5 mph - N/A   Clear
11:56 PM 30.2 °F 26.7 °F 26.6 °F 86% 29.99 in 10.0 mi West 3.5 mph - N/A   Clear